M V Stampede — V70B4 — position and weather

sailwx.info

Track history (hours):
 
Tides and Currents Weather Stations Pressure Air Temp Water Temp Dewpoint Dewpoint Depression Visibility Wind Speed Wind Dir Waves Ship Positions

M V Stampede

Last reported at 2014-Sep-11 16:17 UTC. Time now 2014-Sep-21 00:05 UTC.
Position N 39°24' W 074°19'.
Warning: this ship's position is 9 days out of date.

Length 35 m; draft 3.2 m.

Type: Pleasure craft. MMSI: 538070463.

Date/timePositionNaut miles runAvg speedWind from/ knotsBaromVisibWave heightAir tempDewpointWater temp
2014-Sep-11 16:17N 39°24' W 074°19'5 6.5
2014-Sep-11 15:27N 39°29' W 074°15'7 8.1
2014-Sep-11 14:34N 39°34' W 074°09'8 8.2
2014-Sep-11 13:34N 39°41' W 074°03'8 7.9
2014-Sep-11 12:34N 39°49' W 074°00'9 8.6
2014-Sep-11 11:29N 39°58' W 074°00'7 0.7
2014-Sep-11 01:33N 40°05' W 074°01'0 0.0
2014-Sep-11 00:33N 40°05' W 074°01'2 1.8
2014-Sep-10 23:12N 40°06' W 074°03'1 0.9
2014-Sep-10 22:23N 40°06' W 074°02'0 0.1
2014-Sep-10 21:30N 40°06' W 074°02'1 0.8
2014-Sep-10 20:32N 40°06' W 074°01'8 8.3
2014-Sep-10 19:33N 40°13' W 073°58'9 9.4
2014-Sep-10 18:33N 40°22' W 073°53'6 6.0
2014-Sep-10 17:30N 40°29' W 073°53'1010.2
2014-Sep-10 16:33N 40°36' W 074°02'  
Track history (hours):
 
Tides and Currents Weather Stations Pressure Air Temp Water Temp Dewpoint Dewpoint Depression Visibility Wind Speed Wind Dir Waves Ship Positions

M V Stampede

Last reported at 2014-Sep-11 16:17 UTC. Time now 2014-Sep-21 00:05 UTC.
Position N 39°24' W 074°19'.
Warning: this ship's position is 9 days out of date.

Length 35 m; draft 3.2 m.

Type: Pleasure craft. MMSI: 538070463.

Date/timePositionNaut miles runAvg speedWind from/ knotsBaromVisibWave heightAir tempDewpointWater temp
2014-Sep-11 16:17N 39°24' W 074°19'5 6.5
2014-Sep-11 15:27N 39°29' W 074°15'7 8.1
2014-Sep-11 14:34N 39°34' W 074°09'8 8.2
2014-Sep-11 13:34N 39°41' W 074°03'8 7.9
2014-Sep-11 12:34N 39°49' W 074°00'9 8.6
2014-Sep-11 11:29N 39°58' W 074°00'7 0.7
2014-Sep-11 01:33N 40°05' W 074°01'0 0.0
2014-Sep-11 00:33N 40°05' W 074°01'2 1.8
2014-Sep-10 23:12N 40°06' W 074°03'1 0.9
2014-Sep-10 22:23N 40°06' W 074°02'0 0.1
2014-Sep-10 21:30N 40°06' W 074°02'1 0.8
2014-Sep-10 20:32N 40°06' W 074°01'8 8.3
2014-Sep-10 19:33N 40°13' W 073°58'9 9.4
2014-Sep-10 18:33N 40°22' W 073°53'6 6.0
2014-Sep-10 17:30N 40°29' W 073°53'1010.2
2014-Sep-10 16:33N 40°36' W 074°02'  

Dump ship's entire track history